sensor_id;sensor_type;location;lat;lon;timestamp;P1;durP1;ratioP1;P2;durP2;ratioP2
76167;SDS011;64927;48.214;16.378;2023-05-19T00:02:00;11.40;;;7.10;;
76167;SDS011;64927;48.214;16.378;2023-05-19T00:04:29;11.77;;;7.53;;
76167;SDS011;64927;48.214;16.378;2023-05-19T00:06:55;11.63;;;7.80;;
76167;SDS011;64927;48.214;16.378;2023-05-19T00:09:24;12.25;;;7.55;;
76167;SDS011;64927;48.214;16.378;2023-05-19T00:11:50;12.73;;;7.35;;
76167;SDS011;64927;48.214;16.378;2023-05-19T00:14:16;16.08;;;7.70;;
76167;SDS011;64927;48.214;16.378;2023-05-19T00:16:41;14.20;;;7.75;;
76167;SDS011;64927;48.214;16.378;2023-05-19T00:19:10;14.63;;;8.02;;
76167;SDS011;64927;48.214;16.378;2023-05-19T00:21:36;14.40;;;8.15;;
76167;SDS011;64927;48.214;16.378;2023-05-19T00:24:02;11.43;;;7.80;;
76167;SDS011;64927;48.214;16.378;2023-05-19T00:26:28;17.15;;;7.70;;
76167;SDS011;64927;48.214;16.378;2023-05-19T00:28:54;14.98;;;7.80;;
76167;SDS011;64927;48.214;16.378;2023-05-19T00:31:22;10.15;;;7.55;;
76167;SDS011;64927;48.214;16.378;2023-05-19T00:33:50;13.55;;;8.15;;
76167;SDS011;64927;48.214;16.378;2023-05-19T00:36:18;14.00;;;8.35;;
76167;SDS011;64927;48.214;16.378;2023-05-19T00:38:48;14.20;;;9.07;;
76167;SDS011;64927;48.214;16.378;2023-05-19T00:41:17;14.85;;;8.25;;
76167;SDS011;64927;48.214;16.378;2023-05-19T00:43:43;14.55;;;8.73;;
76167;SDS011;64927;48.214;16.378;2023-05-19T00:46:09;15.65;;;9.75;;
76167;SDS011;64927;48.214;16.378;2023-05-19T00:48:37;15.68;;;9.05;;
76167;SDS011;64927;48.214;16.378;2023-05-19T00:51:03;14.52;;;9.70;;
76167;SDS011;64927;48.214;16.378;2023-05-19T00:53:32;13.20;;;8.38;;
76167;SDS011;64927;48.214;16.378;2023-05-19T00:56:01;14.73;;;9.57;;
76167;SDS011;64927;48.214;16.378;2023-05-19T00:58:27;14.07;;;8.95;;
76167;SDS011;64927;48.214;16.378;2023-05-19T01:00:57;13.63;;;8.68;;
76167;SDS011;64927;48.214;16.378;2023-05-19T01:03:27;17.75;;;9.52;;
76167;SDS011;64927;48.214;16.378;2023-05-19T01:05:54;15.02;;;8.95;;
76167;SDS011;64927;48.214;16.378;2023-05-19T01:08:20;15.90;;;9.82;;
76167;SDS011;64927;48.214;16.378;2023-05-19T01:10:46;17.70;;;10.13;;
76167;SDS011;64927;48.214;16.378;2023-05-19T01:13:11;14.80;;;10.05;;
76167;SDS011;64927;48.214;16.378;2023-05-19T01:15:47;19.65;;;9.80;;
76167;SDS011;64927;48.214;16.378;2023-05-19T01:18:28;15.95;;;9.00;;
76167;SDS011;64927;48.214;16.378;2023-05-19T01:21:08;15.00;;;10.07;;
76167;SDS011;64927;48.214;16.378;2023-05-19T01:24:02;19.00;;;10.15;;
76167;SDS011;64927;48.214;16.378;2023-05-19T01:32:07;17.92;;;10.60;;
76167;SDS011;64927;48.214;16.378;2023-05-19T01:34:35;18.55;;;10.85;;
76167;SDS011;64927;48.214;16.378;2023-05-19T01:37:06;16.33;;;11.05;;
76167;SDS011;64927;48.214;16.378;2023-05-19T01:39:32;15.50;;;10.82;;
76167;SDS011;64927;48.214;16.378;2023-05-19T01:42:03;17.52;;;11.18;;
76167;SDS011;64927;48.214;16.378;2023-05-19T01:44:29;16.13;;;10.48;;
76167;SDS011;64927;48.214;16.378;2023-05-19T01:46:56;25.45;;;12.75;;
76167;SDS011;64927;48.214;16.378;2023-05-19T01:49:25;18.33;;;10.90;;
76167;SDS011;64927;48.214;16.378;2023-05-19T01:51:51;22.40;;;11.05;;
76167;SDS011;64927;48.214;16.378;2023-05-19T01:54:17;14.00;;;10.05;;
76167;SDS011;64927;48.214;16.378;2023-05-19T01:56:51;16.42;;;10.80;;
76167;SDS011;64927;48.214;16.378;2023-05-19T02:00:12;17.52;;;10.73;;
76167;SDS011;64927;48.214;16.378;2023-05-19T02:05:48;21.10;;;11.73;;
76167;SDS011;64927;48.214;16.378;2023-05-19T02:09:06;16.77;;;11.25;;
76167;SDS011;64927;48.214;16.378;2023-05-19T02:11:12;20.55;;;12.57;;
76167;SDS011;64927;48.214;16.378;2023-05-19T02:13:43;18.65;;;10.45;;
76167;SDS011;64927;48.214;16.378;2023-05-19T02:16:17;18.85;;;11.43;;
76167;SDS011;64927;48.214;16.378;2023-05-19T02:18:45;16.42;;;10.52;;
76167;SDS011;64927;48.214;16.378;2023-05-19T02:21:12;22.48;;;11.70;;
76167;SDS011;64927;48.214;16.378;2023-05-19T02:23:42;18.98;;;11.82;;
76167;SDS011;64927;48.214;16.378;2023-05-19T02:26:08;20.90;;;11.15;;
76167;SDS011;64927;48.214;16.378;2023-05-19T02:28:34;16.33;;;9.70;;
76167;SDS011;64927;48.214;16.378;2023-05-19T02:31:00;20.33;;;10.73;;
76167;SDS011;64927;48.214;16.378;2023-05-19T02:33:29;15.40;;;10.07;;
76167;SDS011;64927;48.214;16.378;2023-05-19T02:35:55;16.27;;;10.05;;
76167;SDS011;64927;48.214;16.378;2023-05-19T02:38:21;17.65;;;10.57;;
76167;SDS011;64927;48.214;16.378;2023-05-19T02:40:47;17.95;;;10.57;;
76167;SDS011;64927;48.214;16.378;2023-05-19T02:43:12;17.90;;;10.82;;
76167;SDS011;64927;48.214;16.378;2023-05-19T02:45:38;19.50;;;10.75;;
76167;SDS011;64927;48.214;16.378;2023-05-19T02:48:03;22.67;;;11.13;;
76167;SDS011;64927;48.214;16.378;2023-05-19T02:50:29;18.70;;;11.10;;
76167;SDS011;64927;48.214;16.378;2023-05-19T02:52:55;20.23;;;10.65;;
76167;SDS011;64927;48.214;16.378;2023-05-19T02:55:20;16.17;;;10.65;;
76167;SDS011;64927;48.214;16.378;2023-05-19T02:57:46;18.45;;;11.00;;
76167;SDS011;64927;48.214;16.378;2023-05-19T03:00:12;20.02;;;11.60;;
76167;SDS011;64927;48.214;16.378;2023-05-19T03:02:38;18.33;;;10.55;;
76167;SDS011;64927;48.214;16.378;2023-05-19T03:05:05;22.17;;;11.57;;
76167;SDS011;64927;48.214;16.378;2023-05-19T03:07:32;18.25;;;10.48;;
76167;SDS011;64927;48.214;16.378;2023-05-19T03:09:57;22.80;;;12.50;;
76167;SDS011;64927;48.214;16.378;2023-05-19T03:12:23;18.73;;;11.20;;
76167;SDS011;64927;48.214;16.378;2023-05-19T03:14:49;19.15;;;10.70;;
76167;SDS011;64927;48.214;16.378;2023-05-19T03:17:14;17.23;;;9.85;;
76167;SDS011;64927;48.214;16.378;2023-05-19T03:19:40;14.43;;;9.35;;
76167;SDS011;64927;48.214;16.378;2023-05-19T03:22:06;14.27;;;9.13;;
76167;SDS011;64927;48.214;16.378;2023-05-19T03:24:34;16.42;;;9.50;;
76167;SDS011;64927;48.214;16.378;2023-05-19T03:27:03;16.05;;;9.10;;
76167;SDS011;64927;48.214;16.378;2023-05-19T03:29:31;12.95;;;8.43;;
76167;SDS011;64927;48.214;16.378;2023-05-19T03:31:57;11.25;;;7.20;;
76167;SDS011;64927;48.214;16.378;2023-05-19T03:34:23;13.40;;;8.10;;
76167;SDS011;64927;48.214;16.378;2023-05-19T03:36:51;11.88;;;7.55;;
76167;SDS011;64927;48.214;16.378;2023-05-19T03:39:17;11.30;;;6.40;;
76167;SDS011;64927;48.214;16.378;2023-05-19T03:41:45;11.55;;;7.35;;
76167;SDS011;64927;48.214;16.378;2023-05-19T03:44:10;11.70;;;6.60;;
76167;SDS011;64927;48.214;16.378;2023-05-19T03:46:36;9.90;;;6.03;;
76167;SDS011;64927;48.214;16.378;2023-05-19T03:49:02;8.77;;;6.07;;
76167;SDS011;64927;48.214;16.378;2023-05-19T03:51:27;10.93;;;5.78;;
76167;SDS011;64927;48.214;16.378;2023-05-19T03:53:53;7.70;;;5.93;;
76167;SDS011;64927;48.214;16.378;2023-05-19T03:56:20;11.88;;;6.22;;
76167;SDS011;64927;48.214;16.378;2023-05-19T03:58:48;8.88;;;5.22;;
76167;SDS011;64927;48.214;16.378;2023-05-19T04:01:13;11.30;;;5.30;;
76167;SDS011;64927;48.214;16.378;2023-05-19T04:03:39;12.65;;;5.65;;
76167;SDS011;64927;48.214;16.378;2023-05-19T04:06:05;9.07;;;4.70;;
76167;SDS011;64927;48.214;16.378;2023-05-19T04:08:32;8.18;;;5.03;;
76167;SDS011;64927;48.214;16.378;2023-05-19T04:10:57;8.73;;;5.00;;
76167;SDS011;64927;48.214;16.378;2023-05-19T04:13:23;9.95;;;5.82;;
76167;SDS011;64927;48.214;16.378;2023-05-19T04:15:49;6.82;;;4.78;;
76167;SDS011;64927;48.214;16.378;2023-05-19T04:18:14;10.40;;;5.25;;
76167;SDS011;64927;48.214;16.378;2023-05-19T04:20:42;9.90;;;5.40;;
76167;SDS011;64927;48.214;16.378;2023-05-19T04:23:08;12.13;;;4.95;;
76167;SDS011;64927;48.214;16.378;2023-05-19T04:25:33;9.32;;;4.70;;
76167;SDS011;64927;48.214;16.378;2023-05-19T04:28:00;9.43;;;4.88;;
76167;SDS011;64927;48.214;16.378;2023-05-19T04:30:27;8.13;;;4.63;;
76167;SDS011;64927;48.214;16.378;2023-05-19T04:32:53;8.02;;;4.85;;
76167;SDS011;64927;48.214;16.378;2023-05-19T04:35:19;9.45;;;4.60;;
76167;SDS011;64927;48.214;16.378;2023-05-19T04:37:44;7.85;;;4.30;;
76167;SDS011;64927;48.214;16.378;2023-05-19T04:40:11;8.32;;;4.93;;
76167;SDS011;64927;48.214;16.378;2023-05-19T04:42:39;8.13;;;4.70;;
76167;SDS011;64927;48.214;16.378;2023-05-19T04:45:06;7.47;;;4.53;;
76167;SDS011;64927;48.214;16.378;2023-05-19T04:47:36;8.93;;;4.78;;
76167;SDS011;64927;48.214;16.378;2023-05-19T04:50:04;9.77;;;5.45;;
76167;SDS011;64927;48.214;16.378;2023-05-19T04:52:31;7.88;;;4.32;;
76167;SDS011;64927;48.214;16.378;2023-05-19T04:55:00;9.98;;;4.75;;
76167;SDS011;64927;48.214;16.378;2023-05-19T04:57:25;8.25;;;4.68;;
76167;SDS011;64927;48.214;16.378;2023-05-19T04:59:51;11.50;;;5.03;;
76167;SDS011;64927;48.214;16.378;2023-05-19T05:02:17;9.88;;;4.63;;
76167;SDS011;64927;48.214;16.378;2023-05-19T05:04:42;9.45;;;5.05;;
76167;SDS011;64927;48.214;16.378;2023-05-19T05:07:10;7.65;;;4.32;;
76167;SDS011;64927;48.214;16.378;2023-05-19T05:09:36;9.15;;;5.30;;
76167;SDS011;64927;48.214;16.378;2023-05-19T05:12:01;10.10;;;4.78;;
76167;SDS011;64927;48.214;16.378;2023-05-19T05:14:30;8.85;;;4.80;;
76167;SDS011;64927;48.214;16.378;2023-05-19T05:16:55;6.90;;;4.65;;
76167;SDS011;64927;48.214;16.378;2023-05-19T05:19:21;7.75;;;4.97;;
76167;SDS011;64927;48.214;16.378;2023-05-19T05:21:47;8.88;;;5.53;;
76167;SDS011;64927;48.214;16.378;2023-05-19T05:24:13;7.47;;;4.90;;
76167;SDS011;64927;48.214;16.378;2023-05-19T05:26:39;8.07;;;5.07;;
76167;SDS011;64927;48.214;16.378;2023-05-19T05:29:06;5.63;;;3.97;;
76167;SDS011;64927;48.214;16.378;2023-05-19T05:31:33;9.88;;;5.45;;
76167;SDS011;64927;48.214;16.378;2023-05-19T05:34:01;6.40;;;4.65;;
76167;SDS011;64927;48.214;16.378;2023-05-19T05:36:27;8.02;;;4.57;;
76167;SDS011;64927;48.214;16.378;2023-05-19T05:38:52;7.60;;;4.57;;
76167;SDS011;64927;48.214;16.378;2023-05-19T05:41:23;13.90;;;5.25;;
76167;SDS011;64927;48.214;16.378;2023-05-19T05:43:54;7.70;;;4.90;;
76167;SDS011;64927;48.214;16.378;2023-05-19T05:46:21;8.18;;;5.30;;
76167;SDS011;64927;48.214;16.378;2023-05-19T05:48:47;8.55;;;5.10;;
76167;SDS011;64927;48.214;16.378;2023-05-19T05:51:23;10.02;;;5.55;;
76167;SDS011;64927;48.214;16.378;2023-05-19T05:53:52;32.80;;;18.73;;
76167;SDS011;64927;48.214;16.378;2023-05-19T05:56:19;9.32;;;4.70;;
76167;SDS011;64927;48.214;16.378;2023-05-19T05:58:45;6.95;;;4.50;;
76167;SDS011;64927;48.214;16.378;2023-05-19T06:01:11;8.30;;;4.72;;
76167;SDS011;64927;48.214;16.378;2023-05-19T06:03:40;7.53;;;5.20;;
76167;SDS011;64927;48.214;16.378;2023-05-19T06:06:09;9.23;;;5.35;;
76167;SDS011;64927;48.214;16.378;2023-05-19T06:08:35;7.95;;;4.65;;
76167;SDS011;64927;48.214;16.378;2023-05-19T06:11:01;9.23;;;5.15;;
76167;SDS011;64927;48.214;16.378;2023-05-19T06:13:36;7.97;;;5.32;;
76167;SDS011;64927;48.214;16.378;2023-05-19T06:16:03;9.18;;;5.07;;
76167;SDS011;64927;48.214;16.378;2023-05-19T06:18:31;8.18;;;5.35;;
76167;SDS011;64927;48.214;16.378;2023-05-19T06:20:56;10.82;;;4.93;;
76167;SDS011;64927;48.214;16.378;2023-05-19T06:23:22;12.88;;;5.53;;
76167;SDS011;64927;48.214;16.378;2023-05-19T06:25:49;7.80;;;4.32;;
76167;SDS011;64927;48.214;16.378;2023-05-19T06:28:15;10.82;;;4.70;;
76167;SDS011;64927;48.214;16.378;2023-05-19T06:30:40;11.63;;;5.07;;
76167;SDS011;64927;48.214;16.378;2023-05-19T06:33:06;7.47;;;4.72;;
76167;SDS011;64927;48.214;16.378;2023-05-19T06:35:32;9.43;;;5.13;;
76167;SDS011;64927;48.214;16.378;2023-05-19T06:38:00;8.18;;;5.07;;
76167;SDS011;64927;48.214;16.378;2023-05-19T06:40:25;6.72;;;4.50;;
76167;SDS011;64927;48.214;16.378;2023-05-19T06:42:51;8.35;;;4.60;;
76167;SDS011;64927;48.214;16.378;2023-05-19T06:45:19;7.28;;;4.45;;
76167;SDS011;64927;48.214;16.378;2023-05-19T06:47:46;6.28;;;4.18;;
76167;SDS011;64927;48.214;16.378;2023-05-19T06:50:15;7.40;;;4.70;;
76167;SDS011;64927;48.214;16.378;2023-05-19T06:52:40;6.22;;;4.65;;
76167;SDS011;64927;48.214;16.378;2023-05-19T06:55:06;8.40;;;4.63;;
76167;SDS011;64927;48.214;16.378;2023-05-19T06:57:32;7.43;;;5.18;;
76167;SDS011;64927;48.214;16.378;2023-05-19T07:00:00;8.30;;;4.50;;
76167;SDS011;64927;48.214;16.378;2023-05-19T07:02:26;6.65;;;4.53;;
76167;SDS011;64927;48.214;16.378;2023-05-19T07:04:53;10.27;;;5.50;;
76167;SDS011;64927;48.214;16.378;2023-05-19T07:07:19;8.00;;;4.65;;
76167;SDS011;64927;48.214;16.378;2023-05-19T07:09:45;9.35;;;4.25;;
76167;SDS011;64927;48.214;16.378;2023-05-19T07:12:10;7.20;;;4.55;;
76167;SDS011;64927;48.214;16.378;2023-05-19T07:14:36;11.23;;;4.78;;
76167;SDS011;64927;48.214;16.378;2023-05-19T07:17:02;6.97;;;3.83;;
76167;SDS011;64927;48.214;16.378;2023-05-19T07:19:28;6.15;;;4.20;;
76167;SDS011;64927;48.214;16.378;2023-05-19T07:21:54;7.90;;;4.20;;
76167;SDS011;64927;48.214;16.378;2023-05-19T07:24:20;7.15;;;3.90;;
76167;SDS011;64927;48.214;16.378;2023-05-19T07:26:46;6.15;;;4.03;;
76167;SDS011;64927;48.214;16.378;2023-05-19T07:29:14;5.10;;;3.55;;
76167;SDS011;64927;48.214;16.378;2023-05-19T07:31:40;7.55;;;3.95;;
76167;SDS011;64927;48.214;16.378;2023-05-19T07:34:06;6.93;;;4.05;;
76167;SDS011;64927;48.214;16.378;2023-05-19T07:36:32;5.32;;;3.67;;
76167;SDS011;64927;48.214;16.378;2023-05-19T07:38:58;5.68;;;4.03;;
76167;SDS011;64927;48.214;16.378;2023-05-19T07:41:23;5.07;;;3.95;;
76167;SDS011;64927;48.214;16.378;2023-05-19T07:43:50;6.72;;;3.72;;
76167;SDS011;64927;48.214;16.378;2023-05-19T07:46:15;6.90;;;4.10;;
76167;SDS011;64927;48.214;16.378;2023-05-19T07:48:41;8.48;;;4.78;;
76167;SDS011;64927;48.214;16.378;2023-05-19T07:51:07;9.43;;;4.75;;
76167;SDS011;64927;48.214;16.378;2023-05-19T07:53:34;5.65;;;3.60;;
76167;SDS011;64927;48.214;16.378;2023-05-19T07:56:01;7.30;;;4.45;;
76167;SDS011;64927;48.214;16.378;2023-05-19T07:58:27;8.73;;;4.60;;
76167;SDS011;64927;48.214;16.378;2023-05-19T08:00:55;7.85;;;4.72;;
76167;SDS011;64927;48.214;16.378;2023-05-19T08:03:22;33.17;;;18.25;;
76167;SDS011;64927;48.214;16.378;2023-05-19T08:05:47;10.98;;;5.00;;
76167;SDS011;64927;48.214;16.378;2023-05-19T08:08:13;8.60;;;4.88;;
76167;SDS011;64927;48.214;16.378;2023-05-19T08:10:40;7.55;;;5.45;;
76167;SDS011;64927;48.214;16.378;2023-05-19T08:13:06;6.85;;;4.95;;
76167;SDS011;64927;48.214;16.378;2023-05-19T08:15:32;8.50;;;5.03;;
76167;SDS011;64927;48.214;16.378;2023-05-19T08:17:58;6.43;;;4.50;;
76167;SDS011;64927;48.214;16.378;2023-05-19T08:20:23;6.47;;;4.22;;
76167;SDS011;64927;48.214;16.378;2023-05-19T08:22:49;7.70;;;4.57;;
76167;SDS011;64927;48.214;16.378;2023-05-19T08:25:15;8.18;;;5.07;;
76167;SDS011;64927;48.214;16.378;2023-05-19T08:27:43;11.63;;;5.38;;
76167;SDS011;64927;48.214;16.378;2023-05-19T08:30:08;7.32;;;5.35;;
76167;SDS011;64927;48.214;16.378;2023-05-19T08:32:34;7.93;;;5.40;;
76167;SDS011;64927;48.214;16.378;2023-05-19T08:35:00;6.68;;;4.50;;
76167;SDS011;64927;48.214;16.378;2023-05-19T08:37:25;5.72;;;4.43;;
76167;SDS011;64927;48.214;16.378;2023-05-19T08:39:53;9.70;;;5.15;;
76167;SDS011;64927;48.214;16.378;2023-05-19T08:42:21;6.78;;;4.60;;
76167;SDS011;64927;48.214;16.378;2023-05-19T08:44:49;8.48;;;4.25;;
76167;SDS011;64927;48.214;16.378;2023-05-19T08:47:15;7.30;;;5.40;;
76167;SDS011;64927;48.214;16.378;2023-05-19T08:49:42;6.05;;;4.70;;
76167;SDS011;64927;48.214;16.378;2023-05-19T08:55:33;9.15;;;5.00;;
76167;SDS011;64927;48.214;16.378;2023-05-19T08:57:59;13.75;;;6.10;;
76167;SDS011;64927;48.214;16.378;2023-05-19T09:00:27;7.47;;;5.35;;
76167;SDS011;64927;48.214;16.378;2023-05-19T09:02:54;5.85;;;4.30;;
76167;SDS011;64927;48.214;16.378;2023-05-19T09:05:26;9.52;;;5.13;;
76167;SDS011;64927;48.214;16.378;2023-05-19T09:07:52;7.20;;;4.28;;
76167;SDS011;64927;48.214;16.378;2023-05-19T09:10:19;9.63;;;5.13;;
76167;SDS011;64927;48.214;16.378;2023-05-19T09:12:49;8.65;;;4.72;;
76167;SDS011;64927;48.214;16.378;2023-05-19T09:15:15;7.47;;;5.55;;
76167;SDS011;64927;48.214;16.378;2023-05-19T09:17:44;7.85;;;5.55;;
76167;SDS011;64927;48.214;16.378;2023-05-19T09:20:12;5.93;;;4.55;;
76167;SDS011;64927;48.214;16.378;2023-05-19T09:22:41;8.10;;;4.35;;
76167;SDS011;64927;48.214;16.378;2023-05-19T09:25:19;5.82;;;3.67;;
76167;SDS011;64927;48.214;16.378;2023-05-19T09:27:46;8.23;;;4.18;;
76167;SDS011;64927;48.214;16.378;2023-05-19T09:30:18;5.45;;;3.70;;
76167;SDS011;64927;48.214;16.378;2023-05-19T09:32:46;5.07;;;3.42;;
76167;SDS011;64927;48.214;16.378;2023-05-19T09:35:12;4.70;;;3.88;;
76167;SDS011;64927;48.214;16.378;2023-05-19T09:37:41;5.65;;;4.18;;
76167;SDS011;64927;48.214;16.378;2023-05-19T09:40:07;6.40;;;3.85;;
76167;SDS011;64927;48.214;16.378;2023-05-19T09:42:37;6.13;;;4.05;;
76167;SDS011;64927;48.214;16.378;2023-05-19T09:45:07;6.60;;;4.25;;
76167;SDS011;64927;48.214;16.378;2023-05-19T09:47:36;5.85;;;4.18;;
76167;SDS011;64927;48.214;16.378;2023-05-19T09:50:05;5.63;;;3.72;;
76167;SDS011;64927;48.214;16.378;2023-05-19T09:52:38;6.78;;;3.55;;
76167;SDS011;64927;48.214;16.378;2023-05-19T09:55:09;7.38;;;3.55;;
76167;SDS011;64927;48.214;16.378;2023-05-19T09:57:37;4.35;;;3.20;;
76167;SDS011;64927;48.214;16.378;2023-05-19T10:02:35;5.22;;;3.75;;
76167;SDS011;64927;48.214;16.378;2023-05-19T10:05:02;9.20;;;3.28;;
76167;SDS011;64927;48.214;16.378;2023-05-19T10:07:29;7.00;;;3.55;;
76167;SDS011;64927;48.214;16.378;2023-05-19T10:09:58;6.53;;;3.60;;
76167;SDS011;64927;48.214;16.378;2023-05-19T10:12:27;8.15;;;3.50;;
76167;SDS011;64927;48.214;16.378;2023-05-19T10:14:55;5.10;;;3.65;;
76167;SDS011;64927;48.214;16.378;2023-05-19T10:17:21;5.18;;;3.58;;
76167;SDS011;64927;48.214;16.378;2023-05-19T10:19:52;4.82;;;3.30;;
76167;SDS011;64927;48.214;16.378;2023-05-19T10:22:19;4.03;;;3.03;;
76167;SDS011;64927;48.214;16.378;2023-05-19T10:24:48;4.50;;;2.60;;
76167;SDS011;64927;48.214;16.378;2023-05-19T10:27:13;6.93;;;3.67;;
76167;SDS011;64927;48.214;16.378;2023-05-19T10:29:41;6.22;;;3.90;;
76167;SDS011;64927;48.214;16.378;2023-05-19T10:32:13;4.57;;;3.35;;
76167;SDS011;64927;48.214;16.378;2023-05-19T10:40:29;5.07;;;3.33;;
76167;SDS011;64927;48.214;16.378;2023-05-19T10:46:01;5.05;;;3.25;;
76167;SDS011;64927;48.214;16.378;2023-05-19T10:48:31;5.88;;;3.35;;
76167;SDS011;64927;48.214;16.378;2023-05-19T10:50:58;5.60;;;3.50;;
76167;SDS011;64927;48.214;16.378;2023-05-19T10:53:29;5.30;;;3.70;;
76167;SDS011;64927;48.214;16.378;2023-05-19T10:55:59;5.43;;;3.30;;
76167;SDS011;64927;48.214;16.378;2023-05-19T10:58:37;3.75;;;3.17;;
76167;SDS011;64927;48.214;16.378;2023-05-19T11:01:13;4.93;;;3.65;;
76167;SDS011;64927;48.214;16.378;2023-05-19T11:03:44;3.70;;;2.92;;
76167;SDS011;64927;48.214;16.378;2023-05-19T11:08:46;4.47;;;3.20;;
76167;SDS011;64927;48.214;16.378;2023-05-19T11:11:16;6.63;;;3.17;;
76167;SDS011;64927;48.214;16.378;2023-05-19T11:13:44;5.10;;;2.97;;
76167;SDS011;64927;48.214;16.378;2023-05-19T11:16:16;4.20;;;3.28;;
76167;SDS011;64927;48.214;16.378;2023-05-19T11:18:46;4.55;;;3.10;;
76167;SDS011;64927;48.214;16.378;2023-05-19T11:21:13;5.45;;;3.63;;
76167;SDS011;64927;48.214;16.378;2023-05-19T11:23:41;5.75;;;3.05;;
76167;SDS011;64927;48.214;16.378;2023-05-19T11:26:07;5.18;;;3.50;;
76167;SDS011;64927;48.214;16.378;2023-05-19T11:28:33;3.47;;;3.10;;
76167;SDS011;64927;48.214;16.378;2023-05-19T11:31:00;7.30;;;2.92;;
76167;SDS011;64927;48.214;16.378;2023-05-19T11:33:26;4.82;;;2.83;;
76167;SDS011;64927;48.214;16.378;2023-05-19T11:35:56;4.15;;;2.88;;
76167;SDS011;64927;48.214;16.378;2023-05-19T11:38:24;5.47;;;2.75;;
76167;SDS011;64927;48.214;16.378;2023-05-19T11:40:52;4.18;;;3.13;;
76167;SDS011;64927;48.214;16.378;2023-05-19T11:43:18;5.93;;;3.30;;
76167;SDS011;64927;48.214;16.378;2023-05-19T11:45:47;4.32;;;3.17;;
76167;SDS011;64927;48.214;16.378;2023-05-19T11:48:13;3.72;;;3.08;;
76167;SDS011;64927;48.214;16.378;2023-05-19T11:50:42;4.80;;;3.00;;
76167;SDS011;64927;48.214;16.378;2023-05-19T11:53:10;4.45;;;3.13;;
76167;SDS011;64927;48.214;16.378;2023-05-19T11:55:40;3.17;;;2.80;;
76167;SDS011;64927;48.214;16.378;2023-05-19T11:58:13;4.47;;;2.83;;
76167;SDS011;64927;48.214;16.378;2023-05-19T12:00:40;5.68;;;3.10;;
76167;SDS011;64927;48.214;16.378;2023-05-19T12:03:07;4.25;;;2.85;;
76167;SDS011;64927;48.214;16.378;2023-05-19T12:05:35;3.90;;;2.92;;
76167;SDS011;64927;48.214;16.378;2023-05-19T12:08:04;9.82;;;2.70;;
76167;SDS011;64927;48.214;16.378;2023-05-19T12:10:30;3.75;;;2.35;;
76167;SDS011;64927;48.214;16.378;2023-05-19T12:12:58;5.82;;;2.75;;
76167;SDS011;64927;48.214;16.378;2023-05-19T12:15:24;3.45;;;2.40;;
76167;SDS011;64927;48.214;16.378;2023-05-19T12:17:54;5.13;;;2.85;;
76167;SDS011;64927;48.214;16.378;2023-05-19T12:20:21;2.60;;;1.90;;
76167;SDS011;64927;48.214;16.378;2023-05-19T12:22:48;3.90;;;2.30;;
76167;SDS011;64927;48.214;16.378;2023-05-19T12:25:14;3.17;;;2.15;;
76167;SDS011;64927;48.214;16.378;2023-05-19T12:27:43;3.28;;;2.25;;
76167;SDS011;64927;48.214;16.378;2023-05-19T12:30:09;3.10;;;2.25;;
76167;SDS011;64927;48.214;16.378;2023-05-19T12:32:38;2.85;;;2.10;;
76167;SDS011;64927;48.214;16.378;2023-05-19T12:35:06;4.47;;;1.90;;
76167;SDS011;64927;48.214;16.378;2023-05-19T12:37:35;3.03;;;2.00;;
76167;SDS011;64927;48.214;16.378;2023-05-19T12:40:04;4.78;;;1.70;;
76167;SDS011;64927;48.214;16.378;2023-05-19T12:42:31;2.85;;;2.00;;
76167;SDS011;64927;48.214;16.378;2023-05-19T12:45:00;3.05;;;1.92;;
76167;SDS011;64927;48.214;16.378;2023-05-19T12:47:29;3.67;;;2.22;;
76167;SDS011;64927;48.214;16.378;2023-05-19T12:52:24;4.05;;;2.30;;
76167;SDS011;64927;48.214;16.378;2023-05-19T12:55:04;2.75;;;2.20;;
76167;SDS011;64927;48.214;16.378;2023-05-19T12:57:34;2.88;;;2.17;;
76167;SDS011;64927;48.214;16.378;2023-05-19T13:00:18;3.95;;;2.05;;
76167;SDS011;64927;48.214;16.378;2023-05-19T13:02:55;2.53;;;2.05;;
76167;SDS011;64927;48.214;16.378;2023-05-19T13:05:29;4.22;;;2.22;;
76167;SDS011;64927;48.214;16.378;2023-05-19T13:08:00;3.22;;;2.28;;
76167;SDS011;64927;48.214;16.378;2023-05-19T13:10:33;3.20;;;1.98;;
76167;SDS011;64927;48.214;16.378;2023-05-19T13:13:00;4.38;;;2.00;;
76167;SDS011;64927;48.214;16.378;2023-05-19T13:15:27;2.47;;;1.95;;
76167;SDS011;64927;48.214;16.378;2023-05-19T13:17:55;2.65;;;2.03;;
76167;SDS011;64927;48.214;16.378;2023-05-19T13:20:24;3.30;;;2.05;;
76167;SDS011;64927;48.214;16.378;2023-05-19T13:22:50;6.28;;;2.42;;
76167;SDS011;64927;48.214;16.378;2023-05-19T13:25:16;4.20;;;2.03;;
76167;SDS011;64927;48.214;16.378;2023-05-19T13:27:42;3.22;;;2.13;;
76167;SDS011;64927;48.214;16.378;2023-05-19T13:30:09;3.13;;;2.42;;
76167;SDS011;64927;48.214;16.378;2023-05-19T13:32:35;2.97;;;2.05;;
76167;SDS011;64927;48.214;16.378;2023-05-19T13:35:01;2.83;;;1.75;;
76167;SDS011;64927;48.214;16.378;2023-05-19T13:37:27;3.00;;;2.15;;
76167;SDS011;64927;48.214;16.378;2023-05-19T13:39:53;3.65;;;2.25;;
76167;SDS011;64927;48.214;16.378;2023-05-19T13:42:19;4.55;;;2.05;;
76167;SDS011;64927;48.214;16.378;2023-05-19T13:44:45;2.97;;;1.95;;
76167;SDS011;64927;48.214;16.378;2023-05-19T13:47:11;3.13;;;2.13;;
76167;SDS011;64927;48.214;16.378;2023-05-19T13:49:37;3.67;;;2.10;;
76167;SDS011;64927;48.214;16.378;2023-05-19T13:52:03;4.63;;;2.47;;
76167;SDS011;64927;48.214;16.378;2023-05-19T13:54:30;2.78;;;2.35;;
76167;SDS011;64927;48.214;16.378;2023-05-19T13:56:56;2.47;;;1.67;;
76167;SDS011;64927;48.214;16.378;2023-05-19T13:59:22;2.33;;;1.88;;
76167;SDS011;64927;48.214;16.378;2023-05-19T14:01:49;2.67;;;2.08;;
76167;SDS011;64927;48.214;16.378;2023-05-19T14:04:16;3.15;;;1.90;;
76167;SDS011;64927;48.214;16.378;2023-05-19T14:06:42;3.22;;;2.20;;
76167;SDS011;64927;48.214;16.378;2023-05-19T14:09:10;3.08;;;2.50;;
76167;SDS011;64927;48.214;16.378;2023-05-19T14:11:38;4.30;;;2.20;;
76167;SDS011;64927;48.214;16.378;2023-05-19T14:14:05;2.88;;;1.85;;
76167;SDS011;64927;48.214;16.378;2023-05-19T14:16:31;2.65;;;2.15;;
76167;SDS011;64927;48.214;16.378;2023-05-19T14:18:59;2.92;;;1.83;;
76167;SDS011;64927;48.214;16.378;2023-05-19T14:21:25;4.35;;;2.97;;
76167;SDS011;64927;48.214;16.378;2023-05-19T14:23:53;4.22;;;2.88;;
76167;SDS011;64927;48.214;16.378;2023-05-19T14:26:19;3.17;;;2.75;;
76167;SDS011;64927;48.214;16.378;2023-05-19T14:28:45;3.55;;;2.72;;
76167;SDS011;64927;48.214;16.378;2023-05-19T14:31:11;4.32;;;3.03;;
76167;SDS011;64927;48.214;16.378;2023-05-19T14:33:38;3.42;;;2.95;;
76167;SDS011;64927;48.214;16.378;2023-05-19T14:36:04;3.58;;;2.92;;
76167;SDS011;64927;48.214;16.378;2023-05-19T14:38:33;3.45;;;3.08;;
76167;SDS011;64927;48.214;16.378;2023-05-19T14:41:01;4.05;;;3.17;;
76167;SDS011;64927;48.214;16.378;2023-05-19T14:43:27;4.20;;;3.30;;
76167;SDS011;64927;48.214;16.378;2023-05-19T14:45:53;4.72;;;3.30;;
76167;SDS011;64927;48.214;16.378;2023-05-19T14:48:18;4.75;;;4.20;;
76167;SDS011;64927;48.214;16.378;2023-05-19T14:50:46;4.57;;;4.10;;
76167;SDS011;64927;48.214;16.378;2023-05-19T14:53:12;4.80;;;3.53;;
76167;SDS011;64927;48.214;16.378;2023-05-19T14:55:43;4.70;;;4.20;;
76167;SDS011;64927;48.214;16.378;2023-05-19T14:58:08;5.03;;;4.03;;
76167;SDS011;64927;48.214;16.378;2023-05-19T15:00:34;4.45;;;4.05;;